sensor_id;sensor_type;location;lat;lon;timestamp;P1;durP1;ratioP1;P2;durP2;ratioP2
72464;SDS011;60471;52.150;4.508;2023-09-30T00:01:24;19.73;;;6.10;;
72464;SDS011;60471;52.150;4.508;2023-09-30T00:03:50;19.75;;;6.20;;
72464;SDS011;60471;52.150;4.508;2023-09-30T00:06:17;16.00;;;6.82;;
72464;SDS011;60471;52.150;4.508;2023-09-30T00:08:43;16.73;;;5.82;;
72464;SDS011;60471;52.150;4.508;2023-09-30T00:11:10;16.92;;;5.72;;
72464;SDS011;60471;52.150;4.508;2023-09-30T00:13:36;17.15;;;5.50;;
72464;SDS011;60471;52.150;4.508;2023-09-30T00:16:02;18.17;;;6.68;;
72464;SDS011;60471;52.150;4.508;2023-09-30T00:18:29;20.05;;;6.38;;
72464;SDS011;60471;52.150;4.508;2023-09-30T00:20:55;16.65;;;6.18;;
72464;SDS011;60471;52.150;4.508;2023-09-30T00:23:23;21.75;;;6.95;;
72464;SDS011;60471;52.150;4.508;2023-09-30T00:25:49;14.88;;;4.38;;
72464;SDS011;60471;52.150;4.508;2023-09-30T00:28:16;21.00;;;6.82;;
72464;SDS011;60471;52.150;4.508;2023-09-30T00:30:42;21.08;;;7.15;;
72464;SDS011;60471;52.150;4.508;2023-09-30T00:33:11;21.30;;;4.88;;
72464;SDS011;60471;52.150;4.508;2023-09-30T00:35:37;16.75;;;6.28;;
72464;SDS011;60471;52.150;4.508;2023-09-30T00:38:04;17.08;;;6.10;;
72464;SDS011;60471;52.150;4.508;2023-09-30T00:40:30;15.45;;;6.13;;
72464;SDS011;60471;52.150;4.508;2023-09-30T00:42:57;17.25;;;5.53;;
72464;SDS011;60471;52.150;4.508;2023-09-30T00:45:24;17.67;;;5.93;;
72464;SDS011;60471;52.150;4.508;2023-09-30T00:47:50;15.00;;;5.72;;
72464;SDS011;60471;52.150;4.508;2023-09-30T00:50:17;16.50;;;5.68;;
72464;SDS011;60471;52.150;4.508;2023-09-30T00:52:47;18.42;;;5.95;;
72464;SDS011;60471;52.150;4.508;2023-09-30T00:55:15;18.10;;;6.10;;
72464;SDS011;60471;52.150;4.508;2023-09-30T00:57:44;17.42;;;6.32;;
72464;SDS011;60471;52.150;4.508;2023-09-30T01:00:11;19.80;;;6.38;;
72464;SDS011;60471;52.150;4.508;2023-09-30T01:02:40;16.77;;;6.35;;
72464;SDS011;60471;52.150;4.508;2023-09-30T01:05:07;17.00;;;6.18;;
72464;SDS011;60471;52.150;4.508;2023-09-30T01:07:34;20.55;;;6.03;;
72464;SDS011;60471;52.150;4.508;2023-09-30T01:10:01;19.10;;;6.80;;
72464;SDS011;60471;52.150;4.508;2023-09-30T01:12:28;14.38;;;4.68;;
72464;SDS011;60471;52.150;4.508;2023-09-30T01:14:58;15.98;;;5.85;;
72464;SDS011;60471;52.150;4.508;2023-09-30T01:17:30;19.27;;;6.38;;
72464;SDS011;60471;52.150;4.508;2023-09-30T01:19:57;17.30;;;5.75;;
72464;SDS011;60471;52.150;4.508;2023-09-30T01:22:25;19.80;;;6.88;;
72464;SDS011;60471;52.150;4.508;2023-09-30T01:24:54;15.55;;;6.63;;
72464;SDS011;60471;52.150;4.508;2023-09-30T01:27:21;19.75;;;6.85;;
72464;SDS011;60471;52.150;4.508;2023-09-30T01:29:47;16.83;;;6.43;;
72464;SDS011;60471;52.150;4.508;2023-09-30T01:32:14;16.02;;;6.68;;
72464;SDS011;60471;52.150;4.508;2023-09-30T01:34:40;18.27;;;6.20;;
72464;SDS011;60471;52.150;4.508;2023-09-30T01:37:07;21.52;;;7.20;;
72464;SDS011;60471;52.150;4.508;2023-09-30T01:39:33;13.88;;;4.22;;
72464;SDS011;60471;52.150;4.508;2023-09-30T01:41:59;19.88;;;6.88;;
72464;SDS011;60471;52.150;4.508;2023-09-30T01:44:26;17.42;;;7.22;;
72464;SDS011;60471;52.150;4.508;2023-09-30T01:46:53;16.95;;;6.93;;
72464;SDS011;60471;52.150;4.508;2023-09-30T01:49:19;20.05;;;7.07;;
72464;SDS011;60471;52.150;4.508;2023-09-30T01:51:45;18.55;;;6.35;;
72464;SDS011;60471;52.150;4.508;2023-09-30T01:54:12;18.85;;;7.20;;
72464;SDS011;60471;52.150;4.508;2023-09-30T01:56:38;22.75;;;7.00;;
72464;SDS011;60471;52.150;4.508;2023-09-30T01:59:05;21.40;;;8.30;;
72464;SDS011;60471;52.150;4.508;2023-09-30T02:01:31;18.08;;;7.47;;
72464;SDS011;60471;52.150;4.508;2023-09-30T02:03:57;20.10;;;7.72;;
72464;SDS011;60471;52.150;4.508;2023-09-30T02:06:23;21.63;;;7.82;;
72464;SDS011;60471;52.150;4.508;2023-09-30T02:08:50;17.52;;;7.20;;
72464;SDS011;60471;52.150;4.508;2023-09-30T02:11:17;18.92;;;5.18;;
72464;SDS011;60471;52.150;4.508;2023-09-30T02:13:43;23.30;;;8.15;;
72464;SDS011;60471;52.150;4.508;2023-09-30T02:16:13;18.40;;;7.07;;
72464;SDS011;60471;52.150;4.508;2023-09-30T02:18:41;18.27;;;5.43;;
72464;SDS011;60471;52.150;4.508;2023-09-30T02:21:10;20.05;;;7.45;;
72464;SDS011;60471;52.150;4.508;2023-09-30T02:23:37;15.70;;;6.90;;
72464;SDS011;60471;52.150;4.508;2023-09-30T02:26:03;21.40;;;7.40;;
72464;SDS011;60471;52.150;4.508;2023-09-30T02:28:29;18.55;;;7.57;;
72464;SDS011;60471;52.150;4.508;2023-09-30T02:30:59;21.10;;;7.20;;
72464;SDS011;60471;52.150;4.508;2023-09-30T02:33:26;17.48;;;7.68;;
72464;SDS011;60471;52.150;4.508;2023-09-30T02:35:52;19.13;;;7.13;;
72464;SDS011;60471;52.150;4.508;2023-09-30T02:38:19;18.48;;;7.30;;
72464;SDS011;60471;52.150;4.508;2023-09-30T02:40:47;19.25;;;7.25;;
72464;SDS011;60471;52.150;4.508;2023-09-30T02:43:14;22.33;;;7.50;;
72464;SDS011;60471;52.150;4.508;2023-09-30T02:45:40;25.38;;;7.78;;
72464;SDS011;60471;52.150;4.508;2023-09-30T02:48:06;18.63;;;7.97;;
72464;SDS011;60471;52.150;4.508;2023-09-30T02:50:34;20.52;;;7.78;;
72464;SDS011;60471;52.150;4.508;2023-09-30T02:53:00;20.23;;;7.80;;
72464;SDS011;60471;52.150;4.508;2023-09-30T02:55:26;26.75;;;7.90;;
72464;SDS011;60471;52.150;4.508;2023-09-30T02:57:53;22.63;;;7.45;;
72464;SDS011;60471;52.150;4.508;2023-09-30T03:00:19;18.88;;;7.65;;
72464;SDS011;60471;52.150;4.508;2023-09-30T03:02:52;18.38;;;7.65;;
72464;SDS011;60471;52.150;4.508;2023-09-30T03:05:19;21.33;;;8.07;;
72464;SDS011;60471;52.150;4.508;2023-09-30T03:07:46;16.63;;;6.68;;
72464;SDS011;60471;52.150;4.508;2023-09-30T03:10:14;19.52;;;8.57;;
72464;SDS011;60471;52.150;4.508;2023-09-30T03:12:49;21.70;;;8.45;;
72464;SDS011;60471;52.150;4.508;2023-09-30T03:15:19;21.67;;;8.57;;
72464;SDS011;60471;52.150;4.508;2023-09-30T03:17:45;20.30;;;8.18;;
72464;SDS011;60471;52.150;4.508;2023-09-30T03:20:12;18.70;;;8.02;;
72464;SDS011;60471;52.150;4.508;2023-09-30T03:22:43;23.23;;;8.98;;
72464;SDS011;60471;52.150;4.508;2023-09-30T03:25:13;19.38;;;8.18;;
72464;SDS011;60471;52.150;4.508;2023-09-30T03:27:43;21.70;;;9.15;;
72464;SDS011;60471;52.150;4.508;2023-09-30T03:30:14;22.40;;;9.30;;
72464;SDS011;60471;52.150;4.508;2023-09-30T03:32:42;19.23;;;9.15;;
72464;SDS011;60471;52.150;4.508;2023-09-30T03:35:10;18.63;;;8.30;;
72464;SDS011;60471;52.150;4.508;2023-09-30T03:37:40;19.80;;;9.17;;
72464;SDS011;60471;52.150;4.508;2023-09-30T03:40:07;21.40;;;8.93;;
72464;SDS011;60471;52.150;4.508;2023-09-30T03:42:40;24.13;;;9.48;;
72464;SDS011;60471;52.150;4.508;2023-09-30T03:45:10;21.73;;;10.38;;
72464;SDS011;60471;52.150;4.508;2023-09-30T03:47:39;26.00;;;9.85;;
72464;SDS011;60471;52.150;4.508;2023-09-30T03:50:07;24.13;;;10.50;;
72464;SDS011;60471;52.150;4.508;2023-09-30T03:52:40;23.35;;;10.45;;
72464;SDS011;60471;52.150;4.508;2023-09-30T03:55:13;25.60;;;10.88;;
72464;SDS011;60471;52.150;4.508;2023-09-30T03:57:43;22.67;;;9.70;;
72464;SDS011;60471;52.150;4.508;2023-09-30T04:00:13;25.75;;;10.80;;
72464;SDS011;60471;52.150;4.508;2023-09-30T04:02:44;22.30;;;9.80;;
72464;SDS011;60471;52.150;4.508;2023-09-30T04:05:14;20.10;;;9.70;;
72464;SDS011;60471;52.150;4.508;2023-09-30T04:07:42;24.20;;;10.25;;
72464;SDS011;60471;52.150;4.508;2023-09-30T04:10:09;27.38;;;10.85;;
72464;SDS011;60471;52.150;4.508;2023-09-30T04:12:36;26.13;;;12.18;;
72464;SDS011;60471;52.150;4.508;2023-09-30T04:15:02;25.42;;;11.20;;
72464;SDS011;60471;52.150;4.508;2023-09-30T04:17:29;27.30;;;12.10;;
72464;SDS011;60471;52.150;4.508;2023-09-30T04:19:56;25.98;;;11.45;;
72464;SDS011;60471;52.150;4.508;2023-09-30T04:22:23;27.35;;;11.80;;
72464;SDS011;60471;52.150;4.508;2023-09-30T04:24:51;29.13;;;12.18;;
72464;SDS011;60471;52.150;4.508;2023-09-30T04:27:17;24.83;;;11.57;;
72464;SDS011;60471;52.150;4.508;2023-09-30T04:29:43;25.90;;;11.68;;
72464;SDS011;60471;52.150;4.508;2023-09-30T04:32:10;23.13;;;11.70;;
72464;SDS011;60471;52.150;4.508;2023-09-30T04:34:36;24.33;;;12.85;;
72464;SDS011;60471;52.150;4.508;2023-09-30T04:37:02;27.48;;;12.35;;
72464;SDS011;60471;52.150;4.508;2023-09-30T04:39:29;25.48;;;12.85;;
72464;SDS011;60471;52.150;4.508;2023-09-30T04:41:55;27.52;;;14.57;;
72464;SDS011;60471;52.150;4.508;2023-09-30T04:44:22;30.30;;;13.05;;
72464;SDS011;60471;52.150;4.508;2023-09-30T04:46:53;29.42;;;12.60;;
72464;SDS011;60471;52.150;4.508;2023-09-30T04:49:22;24.88;;;12.10;;
72464;SDS011;60471;52.150;4.508;2023-09-30T04:51:49;28.08;;;12.88;;
72464;SDS011;60471;52.150;4.508;2023-09-30T04:54:15;29.45;;;12.82;;
72464;SDS011;60471;52.150;4.508;2023-09-30T04:56:41;30.80;;;12.82;;
72464;SDS011;60471;52.150;4.508;2023-09-30T04:59:08;32.20;;;13.73;;
72464;SDS011;60471;52.150;4.508;2023-09-30T05:01:34;29.00;;;14.02;;
72464;SDS011;60471;52.150;4.508;2023-09-30T05:04:00;29.90;;;14.52;;
72464;SDS011;60471;52.150;4.508;2023-09-30T05:06:27;33.13;;;15.00;;
72464;SDS011;60471;52.150;4.508;2023-09-30T05:08:53;28.10;;;13.80;;
72464;SDS011;60471;52.150;4.508;2023-09-30T05:11:21;32.70;;;14.45;;
72464;SDS011;60471;52.150;4.508;2023-09-30T05:13:47;31.02;;;14.57;;
72464;SDS011;60471;52.150;4.508;2023-09-30T05:16:13;34.38;;;15.38;;
72464;SDS011;60471;52.150;4.508;2023-09-30T05:18:41;32.40;;;13.57;;
72464;SDS011;60471;52.150;4.508;2023-09-30T05:21:07;35.33;;;15.15;;
72464;SDS011;60471;52.150;4.508;2023-09-30T05:23:33;31.63;;;16.27;;
72464;SDS011;60471;52.150;4.508;2023-09-30T05:26:00;38.00;;;16.90;;
72464;SDS011;60471;52.150;4.508;2023-09-30T05:28:27;38.63;;;16.20;;
72464;SDS011;60471;52.150;4.508;2023-09-30T05:30:53;30.05;;;13.13;;
72464;SDS011;60471;52.150;4.508;2023-09-30T05:33:20;29.63;;;15.52;;
72464;SDS011;60471;52.150;4.508;2023-09-30T05:35:46;33.00;;;17.17;;
72464;SDS011;60471;52.150;4.508;2023-09-30T05:38:13;33.33;;;17.35;;
72464;SDS011;60471;52.150;4.508;2023-09-30T05:40:39;36.72;;;18.77;;
72464;SDS011;60471;52.150;4.508;2023-09-30T05:43:07;38.83;;;18.35;;
72464;SDS011;60471;52.150;4.508;2023-09-30T05:45:33;36.70;;;19.27;;
72464;SDS011;60471;52.150;4.508;2023-09-30T05:48:01;31.60;;;18.40;;
72464;SDS011;60471;52.150;4.508;2023-09-30T05:50:32;30.55;;;12.57;;
72464;SDS011;60471;52.150;4.508;2023-09-30T05:53:02;41.45;;;18.90;;
72464;SDS011;60471;52.150;4.508;2023-09-30T05:55:30;43.13;;;19.25;;
72464;SDS011;60471;52.150;4.508;2023-09-30T05:57:56;31.45;;;16.73;;
72464;SDS011;60471;52.150;4.508;2023-09-30T06:00:23;34.20;;;16.75;;
72464;SDS011;60471;52.150;4.508;2023-09-30T06:03:01;38.03;;;18.77;;
72464;SDS011;60471;52.150;4.508;2023-09-30T06:05:30;39.30;;;19.35;;
72464;SDS011;60471;52.150;4.508;2023-09-30T06:07:58;35.30;;;19.45;;
72464;SDS011;60471;52.150;4.508;2023-09-30T06:10:28;43.40;;;19.83;;
72464;SDS011;60471;52.150;4.508;2023-09-30T06:12:55;44.60;;;20.90;;
72464;SDS011;60471;52.150;4.508;2023-09-30T06:15:23;44.55;;;21.65;;
72464;SDS011;60471;52.150;4.508;2023-09-30T06:17:54;40.45;;;21.75;;
72464;SDS011;60471;52.150;4.508;2023-09-30T06:20:22;39.22;;;20.30;;
72464;SDS011;60471;52.150;4.508;2023-09-30T06:22:51;37.70;;;21.40;;
72464;SDS011;60471;52.150;4.508;2023-09-30T06:25:21;46.25;;;22.15;;
72464;SDS011;60471;52.150;4.508;2023-09-30T06:27:49;38.08;;;22.40;;
72464;SDS011;60471;52.150;4.508;2023-09-30T06:30:16;44.40;;;24.35;;
72464;SDS011;60471;52.150;4.508;2023-09-30T06:32:47;39.40;;;22.55;;
72464;SDS011;60471;52.150;4.508;2023-09-30T06:35:13;48.80;;;24.90;;
72464;SDS011;60471;52.150;4.508;2023-09-30T06:37:40;43.97;;;23.92;;
72464;SDS011;60471;52.150;4.508;2023-09-30T06:40:07;40.42;;;23.63;;
72464;SDS011;60471;52.150;4.508;2023-09-30T06:42:38;50.15;;;24.88;;
72464;SDS011;60471;52.150;4.508;2023-09-30T06:45:05;45.28;;;24.48;;
72464;SDS011;60471;52.150;4.508;2023-09-30T06:47:33;37.30;;;23.73;;
72464;SDS011;60471;52.150;4.508;2023-09-30T06:50:03;38.88;;;21.15;;
72464;SDS011;60471;52.150;4.508;2023-09-30T06:52:34;45.45;;;25.25;;
72464;SDS011;60471;52.150;4.508;2023-09-30T06:55:02;42.78;;;23.58;;
72464;SDS011;60471;52.150;4.508;2023-09-30T06:57:33;42.65;;;25.02;;
72464;SDS011;60471;52.150;4.508;2023-09-30T07:00:04;47.45;;;21.48;;
72464;SDS011;60471;52.150;4.508;2023-09-30T07:02:35;50.67;;;26.20;;
72464;SDS011;60471;52.150;4.508;2023-09-30T07:05:11;39.85;;;26.08;;
72464;SDS011;60471;52.150;4.508;2023-09-30T07:07:40;38.92;;;24.65;;
72464;SDS011;60471;52.150;4.508;2023-09-30T07:10:09;40.35;;;23.70;;
72464;SDS011;60471;52.150;4.508;2023-09-30T07:12:37;44.30;;;25.70;;
72464;SDS011;60471;52.150;4.508;2023-09-30T07:15:03;45.03;;;25.63;;
72464;SDS011;60471;52.150;4.508;2023-09-30T07:17:34;45.58;;;25.98;;
72464;SDS011;60471;52.150;4.508;2023-09-30T07:20:01;44.13;;;25.65;;
72464;SDS011;60471;52.150;4.508;2023-09-30T07:22:28;36.85;;;23.70;;
72464;SDS011;60471;52.150;4.508;2023-09-30T07:24:54;41.08;;;23.52;;
72464;SDS011;60471;52.150;4.508;2023-09-30T07:27:21;41.50;;;25.45;;
72464;SDS011;60471;52.150;4.508;2023-09-30T07:29:47;44.40;;;25.70;;
72464;SDS011;60471;52.150;4.508;2023-09-30T07:32:14;45.90;;;24.48;;
72464;SDS011;60471;52.150;4.508;2023-09-30T07:34:40;47.88;;;23.73;;
72464;SDS011;60471;52.150;4.508;2023-09-30T07:37:06;39.85;;;22.23;;
72464;SDS011;60471;52.150;4.508;2023-09-30T07:39:33;45.08;;;23.40;;
72464;SDS011;60471;52.150;4.508;2023-09-30T07:42:00;40.50;;;22.33;;
72464;SDS011;60471;52.150;4.508;2023-09-30T07:44:26;41.08;;;24.00;;
72464;SDS011;60471;52.150;4.508;2023-09-30T07:46:53;38.97;;;23.10;;
72464;SDS011;60471;52.150;4.508;2023-09-30T07:49:19;37.45;;;22.15;;
72464;SDS011;60471;52.150;4.508;2023-09-30T07:51:45;36.75;;;23.17;;
72464;SDS011;60471;52.150;4.508;2023-09-30T07:54:15;37.28;;;21.20;;
72464;SDS011;60471;52.150;4.508;2023-09-30T07:56:43;43.75;;;23.25;;
72464;SDS011;60471;52.150;4.508;2023-09-30T07:59:09;37.00;;;22.50;;
72464;SDS011;60471;52.150;4.508;2023-09-30T08:01:35;36.78;;;21.45;;
72464;SDS011;60471;52.150;4.508;2023-09-30T08:04:03;35.28;;;21.63;;
72464;SDS011;60471;52.150;4.508;2023-09-30T08:06:29;34.38;;;21.02;;
72464;SDS011;60471;52.150;4.508;2023-09-30T08:08:56;32.97;;;21.73;;
72464;SDS011;60471;52.150;4.508;2023-09-30T08:11:22;34.65;;;18.75;;
72464;SDS011;60471;52.150;4.508;2023-09-30T08:13:50;34.75;;;18.85;;
72464;SDS011;60471;52.150;4.508;2023-09-30T08:16:17;30.00;;;17.95;;
72464;SDS011;60471;52.150;4.508;2023-09-30T08:18:43;30.98;;;16.25;;
72464;SDS011;60471;52.150;4.508;2023-09-30T08:21:09;27.67;;;16.88;;
72464;SDS011;60471;52.150;4.508;2023-09-30T08:23:37;30.10;;;15.13;;
72464;SDS011;60471;52.150;4.508;2023-09-30T08:26:05;25.25;;;14.57;;
72464;SDS011;60471;52.150;4.508;2023-09-30T08:28:31;29.23;;;15.73;;
72464;SDS011;60471;52.150;4.508;2023-09-30T08:31:01;27.15;;;15.25;;
72464;SDS011;60471;52.150;4.508;2023-09-30T08:33:32;29.20;;;14.57;;
72464;SDS011;60471;52.150;4.508;2023-09-30T08:36:02;27.58;;;14.45;;
72464;SDS011;60471;52.150;4.508;2023-09-30T08:38:37;31.92;;;15.98;;
72464;SDS011;60471;52.150;4.508;2023-09-30T08:41:05;35.10;;;15.30;;
72464;SDS011;60471;52.150;4.508;2023-09-30T08:43:39;27.23;;;14.82;;
72464;SDS011;60471;52.150;4.508;2023-09-30T08:46:06;26.45;;;15.05;;
72464;SDS011;60471;52.150;4.508;2023-09-30T08:48:33;30.83;;;14.68;;
72464;SDS011;60471;52.150;4.508;2023-09-30T08:51:00;29.63;;;14.48;;
72464;SDS011;60471;52.150;4.508;2023-09-30T08:53:30;28.65;;;15.50;;
72464;SDS011;60471;52.150;4.508;2023-09-30T08:55:58;31.75;;;15.77;;
72464;SDS011;60471;52.150;4.508;2023-09-30T08:58:29;27.25;;;14.95;;
72464;SDS011;60471;52.150;4.508;2023-09-30T09:00:58;28.35;;;15.35;;
72464;SDS011;60471;52.150;4.508;2023-09-30T09:03:27;33.85;;;16.33;;
72464;SDS011;60471;52.150;4.508;2023-09-30T09:05:55;32.65;;;14.88;;
72464;SDS011;60471;52.150;4.508;2023-09-30T09:08:26;29.00;;;15.73;;
72464;SDS011;60471;52.150;4.508;2023-09-30T09:10:53;25.02;;;13.80;;
72464;SDS011;60471;52.150;4.508;2023-09-30T09:13:23;23.35;;;13.38;;
72464;SDS011;60471;52.150;4.508;2023-09-30T09:16:09;28.80;;;12.90;;
72464;SDS011;60471;52.150;4.508;2023-09-30T09:18:36;25.63;;;12.40;;
72464;SDS011;60471;52.150;4.508;2023-09-30T09:21:15;30.23;;;12.40;;
72464;SDS011;60471;52.150;4.508;2023-09-30T09:23:49;22.67;;;10.98;;
72464;SDS011;60471;52.150;4.508;2023-09-30T09:26:30;22.88;;;10.73;;
72464;SDS011;60471;52.150;4.508;2023-09-30T09:29:04;19.83;;;9.45;;
72464;SDS011;60471;52.150;4.508;2023-09-30T09:31:36;24.48;;;9.35;;
72464;SDS011;60471;52.150;4.508;2023-09-30T09:36:39;22.15;;;7.57;;
72464;SDS011;60471;52.150;4.508;2023-09-30T09:39:09;22.13;;;5.68;;
72464;SDS011;60471;52.150;4.508;2023-09-30T09:41:54;20.83;;;5.95;;
72464;SDS011;60471;52.150;4.508;2023-09-30T09:44:23;20.48;;;5.20;;
72464;SDS011;60471;52.150;4.508;2023-09-30T09:46:53;16.10;;;4.18;;
72464;SDS011;60471;52.150;4.508;2023-09-30T09:49:20;17.45;;;4.20;;
72464;SDS011;60471;52.150;4.508;2023-09-30T09:51:47;15.95;;;4.35;;
72464;SDS011;60471;52.150;4.508;2023-09-30T09:54:16;15.30;;;3.50;;
72464;SDS011;60471;52.150;4.508;2023-09-30T09:56:45;12.00;;;3.40;;
72464;SDS011;60471;52.150;4.508;2023-09-30T09:59:14;15.38;;;3.50;;
72464;SDS011;60471;52.150;4.508;2023-09-30T10:01:40;11.23;;;2.80;;
72464;SDS011;60471;52.150;4.508;2023-09-30T10:04:08;10.82;;;2.22;;
72464;SDS011;60471;52.150;4.508;2023-09-30T10:06:37;18.17;;;2.95;;
72464;SDS011;60471;52.150;4.508;2023-09-30T10:09:07;15.80;;;3.28;;
72464;SDS011;60471;52.150;4.508;2023-09-30T10:11:39;15.60;;;3.15;;
72464;SDS011;60471;52.150;4.508;2023-09-30T10:14:07;14.70;;;2.72;;
72464;SDS011;60471;52.150;4.508;2023-09-30T10:24:54;12.75;;;2.50;;
72464;SDS011;60471;52.150;4.508;2023-09-30T10:40:53;15.43;;;2.75;;
72464;SDS011;60471;52.150;4.508;2023-09-30T10:43:32;9.48;;;2.58;;
72464;SDS011;60471;52.150;4.508;2023-09-30T10:46:04;11.98;;;2.45;;
72464;SDS011;60471;52.150;4.508;2023-09-30T10:48:52;15.18;;;3.20;;
72464;SDS011;60471;52.150;4.508;2023-09-30T10:51:19;11.07;;;2.60;;
72464;SDS011;60471;52.150;4.508;2023-09-30T10:53:53;14.18;;;2.80;;
72464;SDS011;60471;52.150;4.508;2023-09-30T10:56:32;14.32;;;3.38;;
72464;SDS011;60471;52.150;4.508;2023-09-30T10:58:59;12.75;;;2.88;;
72464;SDS011;60471;52.150;4.508;2023-09-30T11:01:32;17.13;;;3.15;;
72464;SDS011;60471;52.150;4.508;2023-09-30T11:04:01;13.88;;;2.58;;
72464;SDS011;60471;52.150;4.508;2023-09-30T11:06:30;13.85;;;2.83;;
72464;SDS011;60471;52.150;4.508;2023-09-30T11:08:58;12.40;;;2.53;;
72464;SDS011;60471;52.150;4.508;2023-09-30T11:11:34;15.60;;;3.10;;
72464;SDS011;60471;52.150;4.508;2023-09-30T11:14:04;12.65;;;3.00;;
72464;SDS011;60471;52.150;4.508;2023-09-30T11:16:43;18.50;;;2.92;;
72464;SDS011;60471;52.150;4.508;2023-09-30T11:19:13;12.80;;;2.95;;
72464;SDS011;60471;52.150;4.508;2023-09-30T11:21:47;13.80;;;2.97;;
72464;SDS011;60471;52.150;4.508;2023-09-30T11:24:21;12.93;;;2.30;;
72464;SDS011;60471;52.150;4.508;2023-09-30T11:26:47;12.48;;;3.03;;
72464;SDS011;60471;52.150;4.508;2023-09-30T11:29:19;15.48;;;3.35;;
72464;SDS011;60471;52.150;4.508;2023-09-30T11:31:47;16.38;;;3.00;;
72464;SDS011;60471;52.150;4.508;2023-09-30T11:34:16;13.88;;;3.10;;
72464;SDS011;60471;52.150;4.508;2023-09-30T11:36:48;12.48;;;2.90;;
72464;SDS011;60471;52.150;4.508;2023-09-30T11:39:38;14.52;;;2.58;;
72464;SDS011;60471;52.150;4.508;2023-09-30T11:42:12;16.35;;;3.30;;
72464;SDS011;60471;52.150;4.508;2023-09-30T11:44:46;14.20;;;3.10;;
72464;SDS011;60471;52.150;4.508;2023-09-30T11:47:13;14.85;;;3.03;;
72464;SDS011;60471;52.150;4.508;2023-09-30T11:49:41;13.95;;;3.05;;
72464;SDS011;60471;52.150;4.508;2023-09-30T11:52:13;13.32;;;3.13;;
72464;SDS011;60471;52.150;4.508;2023-09-30T11:54:41;12.90;;;2.90;;
72464;SDS011;60471;52.150;4.508;2023-09-30T11:57:14;14.65;;;2.95;;
72464;SDS011;60471;52.150;4.508;2023-09-30T11:59:42;10.73;;;2.88;;
72464;SDS011;60471;52.150;4.508;2023-09-30T12:02:13;14.65;;;3.42;;
72464;SDS011;60471;52.150;4.508;2023-09-30T12:04:42;16.83;;;3.20;;
72464;SDS011;60471;52.150;4.508;2023-09-30T12:07:11;12.60;;;3.13;;
72464;SDS011;60471;52.150;4.508;2023-09-30T12:09:38;12.50;;;3.00;;
72464;SDS011;60471;52.150;4.508;2023-09-30T12:12:05;12.65;;;3.28;;
72464;SDS011;60471;52.150;4.508;2023-09-30T12:14:35;14.07;;;3.15;;
72464;SDS011;60471;52.150;4.508;2023-09-30T12:17:01;12.73;;;2.90;;
72464;SDS011;60471;52.150;4.508;2023-09-30T12:19:28;17.40;;;3.60;;
72464;SDS011;60471;52.150;4.508;2023-09-30T12:21:55;11.30;;;2.88;;
72464;SDS011;60471;52.150;4.508;2023-09-30T12:24:21;13.40;;;3.45;;
72464;SDS011;60471;52.150;4.508;2023-09-30T12:26:50;14.10;;;3.42;;
72464;SDS011;60471;52.150;4.508;2023-09-30T12:29:18;12.70;;;3.13;;
72464;SDS011;60471;52.150;4.508;2023-09-30T12:31:48;15.48;;;3.50;;
72464;SDS011;60471;52.150;4.508;2023-09-30T12:34:17;14.70;;;3.40;;
72464;SDS011;60471;52.150;4.508;2023-09-30T12:36:44;13.20;;;3.65;;
72464;SDS011;60471;52.150;4.508;2023-09-30T12:39:10;16.77;;;4.45;;
72464;SDS011;60471;52.150;4.508;2023-09-30T12:41:38;13.05;;;3.25;;
72464;SDS011;60471;52.150;4.508;2023-09-30T12:44:06;22.75;;;6.50;;
72464;SDS011;60471;52.150;4.508;2023-09-30T12:46:33;18.70;;;4.90;;
72464;SDS011;60471;52.150;4.508;2023-09-30T12:49:05;16.40;;;4.80;;
72464;SDS011;60471;52.150;4.508;2023-09-30T12:51:35;12.63;;;4.07;;
72464;SDS011;60471;52.150;4.508;2023-09-30T12:54:05;21.60;;;6.72;;
72464;SDS011;60471;52.150;4.508;2023-09-30T12:56:31;15.13;;;3.70;;
72464;SDS011;60471;52.150;4.508;2023-09-30T12:58:58;14.50;;;3.95;;
72464;SDS011;60471;52.150;4.508;2023-09-30T13:01:25;15.57;;;3.85;;
72464;SDS011;60471;52.150;4.508;2023-09-30T13:03:54;16.83;;;5.05;;
72464;SDS011;60471;52.150;4.508;2023-09-30T13:06:20;14.88;;;3.78;;
72464;SDS011;60471;52.150;4.508;2023-09-30T13:08:46;18.42;;;4.45;;
72464;SDS011;60471;52.150;4.508;2023-09-30T13:11:13;16.30;;;3.83;;
72464;SDS011;60471;52.150;4.508;2023-09-30T13:13:40;12.13;;;3.33;;
72464;SDS011;60471;52.150;4.508;2023-09-30T13:16:09;18.90;;;4.50;;
72464;SDS011;60471;52.150;4.508;2023-09-30T13:18:37;15.90;;;3.88;;
72464;SDS011;60471;52.150;4.508;2023-09-30T13:21:03;19.75;;;3.50;;
72464;SDS011;60471;52.150;4.508;2023-09-30T13:23:32;13.00;;;3.47;;
72464;SDS011;60471;52.150;4.508;2023-09-30T13:25:59;15.93;;;3.53;;
72464;SDS011;60471;52.150;4.508;2023-09-30T13:28:25;15.60;;;3.90;;
72464;SDS011;60471;52.150;4.508;2023-09-30T13:30:53;18.73;;;6.03;;
72464;SDS011;60471;52.150;4.508;2023-09-30T13:33:19;15.88;;;4.43;;
72464;SDS011;60471;52.150;4.508;2023-09-30T13:35:48;13.15;;;4.15;;
72464;SDS011;60471;52.150;4.508;2023-09-30T13:38:15;16.60;;;4.45;;
72464;SDS011;60471;52.150;4.508;2023-09-30T13:40:42;14.48;;;3.45;;
72464;SDS011;60471;52.150;4.508;2023-09-30T13:43:08;14.65;;;3.38;;
72464;SDS011;60471;52.150;4.508;2023-09-30T13:45:34;16.92;;;3.50;;
72464;SDS011;60471;52.150;4.508;2023-09-30T13:48:00;12.23;;;3.10;;
72464;SDS011;60471;52.150;4.508;2023-09-30T13:50:26;17.52;;;4.60;;
72464;SDS011;60471;52.150;4.508;2023-09-30T13:52:53;17.90;;;4.43;;
72464;SDS011;60471;52.150;4.508;2023-09-30T13:55:19;15.13;;;3.80;;
72464;SDS011;60471;52.150;4.508;2023-09-30T13:57:45;15.63;;;3.30;;
72464;SDS011;60471;52.150;4.508;2023-09-30T14:00:12;12.27;;;3.13;;
72464;SDS011;60471;52.150;4.508;2023-09-30T14:02:39;16.20;;;3.22;;
72464;SDS011;60471;52.150;4.508;2023-09-30T14:05:08;14.80;;;3.60;;
72464;SDS011;60471;52.150;4.508;2023-09-30T14:07:36;12.73;;;2.95;;
72464;SDS011;60471;52.150;4.508;2023-09-30T14:10:02;18.85;;;3.58;;
72464;SDS011;60471;52.150;4.508;2023-09-30T14:12:29;11.85;;;2.47;;
72464;SDS011;60471;52.150;4.508;2023-09-30T14:14:57;17.55;;;3.53;;
72464;SDS011;60471;52.150;4.508;2023-09-30T14:17:23;14.07;;;3.25;;
72464;SDS011;60471;52.150;4.508;2023-09-30T14:19:51;18.05;;;4.88;;
72464;SDS011;60471;52.150;4.508;2023-09-30T14:22:17;14.65;;;3.60;;
72464;SDS011;60471;52.150;4.508;2023-09-30T14:24:43;18.67;;;3.38;;
72464;SDS011;60471;52.150;4.508;2023-09-30T14:27:11;15.80;;;2.90;;
72464;SDS011;60471;52.150;4.508;2023-09-30T14:29:39;18.35;;;3.70;;
72464;SDS011;60471;52.150;4.508;2023-09-30T14:32:06;15.02;;;2.95;;
72464;SDS011;60471;52.150;4.508;2023-09-30T14:34:32;14.50;;;3.30;;
72464;SDS011;60471;52.150;4.508;2023-09-30T14:36:58;14.93;;;3.00;;
72464;SDS011;60471;52.150;4.508;2023-09-30T14:39:25;15.65;;;2.55;;
72464;SDS011;60471;52.150;4.508;2023-09-30T14:41:52;19.65;;;3.13;;
72464;SDS011;60471;52.150;4.508;2023-09-30T14:44:18;19.25;;;5.25;;
72464;SDS011;60471;52.150;4.508;2023-09-30T14:46:47;13.98;;;3.17;;
72464;SDS011;60471;52.150;4.508;2023-09-30T14:49:14;15.65;;;3.45;;
72464;SDS011;60471;52.150;4.508;2023-09-30T14:51:40;19.48;;;3.80;;
72464;SDS011;60471;52.150;4.508;2023-09-30T14:54:07;18.52;;;3.78;;
72464;SDS011;60471;52.150;4.508;2023-09-30T14:56:33;19.13;;;5.80;;
72464;SDS011;60471;52.150;4.508;2023-09-30T14:58:59;13.55;;;2.75;;